sensor_id;sensor_type;location;lat;lon;timestamp;P1;durP1;ratioP1;P2;durP2;ratioP2
22201;SDS011;11266;51.522;6.302;2022-10-16T15:58:22;2.63;;;1.20;;
22201;SDS011;11266;51.522;6.302;2022-10-16T15:59:09;1.40;;;0.80;;
22201;SDS011;11266;51.522;6.302;2022-10-16T15:59:55;1.52;;;0.90;;
22201;SDS011;11266;51.522;6.302;2022-10-16T16:00:41;2.45;;;1.00;;
22201;SDS011;11266;51.522;6.302;2022-10-16T16:01:27;1.73;;;1.00;;
22201;SDS011;11266;51.522;6.302;2022-10-16T16:02:14;2.70;;;1.13;;
22201;SDS011;11266;51.522;6.302;2022-10-16T16:03:00;2.08;;;0.95;;
22201;SDS011;11266;51.522;6.302;2022-10-16T16:03:46;1.90;;;1.00;;
22201;SDS011;11266;51.522;6.302;2022-10-16T16:04:32;1.42;;;0.80;;
22201;SDS011;11266;51.522;6.302;2022-10-16T16:05:18;2.63;;;1.08;;
22201;SDS011;11266;51.522;6.302;2022-10-16T16:06:05;0.90;;;0.60;;
22201;SDS011;11266;51.522;6.302;2022-10-16T16:06:51;2.03;;;0.90;;
22201;SDS011;11266;51.522;6.302;2022-10-16T16:07:38;2.08;;;0.98;;
22201;SDS011;11266;51.522;6.302;2022-10-16T16:08:25;2.80;;;1.30;;
22201;SDS011;11266;51.522;6.302;2022-10-16T16:09:11;2.38;;;1.20;;
22201;SDS011;11266;51.522;6.302;2022-10-16T16:09:58;2.15;;;1.10;;
22201;SDS011;11266;51.522;6.302;2022-10-16T16:10:46;2.35;;;1.00;;
22201;SDS011;11266;51.522;6.302;2022-10-16T16:11:42;2.65;;;1.25;;
22201;SDS011;11266;51.522;6.302;2022-10-16T16:12:28;1.52;;;0.95;;
22201;SDS011;11266;51.522;6.302;2022-10-16T16:13:14;2.15;;;1.05;;
22201;SDS011;11266;51.522;6.302;2022-10-16T16:14:00;2.42;;;1.10;;
22201;SDS011;11266;51.522;6.302;2022-10-16T16:14:47;1.77;;;1.08;;
22201;SDS011;11266;51.522;6.302;2022-10-16T16:15:34;2.33;;;1.08;;
22201;SDS011;11266;51.522;6.302;2022-10-16T16:16:20;1.70;;;0.95;;
22201;SDS011;11266;51.522;6.302;2022-10-16T16:17:06;2.33;;;1.10;;
22201;SDS011;11266;51.522;6.302;2022-10-16T16:17:52;2.92;;;1.15;;
22201;SDS011;11266;51.522;6.302;2022-10-16T16:18:38;4.75;;;1.17;;
22201;SDS011;11266;51.522;6.302;2022-10-16T16:19:24;3.33;;;1.20;;
22201;SDS011;11266;51.522;6.302;2022-10-16T16:20:10;2.53;;;1.10;;
22201;SDS011;11266;51.522;6.302;2022-10-16T16:20:56;2.58;;;1.25;;
22201;SDS011;11266;51.522;6.302;2022-10-16T16:21:42;1.60;;;1.10;;
22201;SDS011;11266;51.522;6.302;2022-10-16T16:22:30;1.90;;;1.00;;
22201;SDS011;11266;51.522;6.302;2022-10-16T16:23:16;2.47;;;1.20;;
22201;SDS011;11266;51.522;6.302;2022-10-16T16:24:04;2.70;;;1.08;;
22201;SDS011;11266;51.522;6.302;2022-10-16T16:24:52;4.43;;;1.75;;
22201;SDS011;11266;51.522;6.302;2022-10-16T16:25:38;4.25;;;1.65;;
22201;SDS011;11266;51.522;6.302;2022-10-16T16:26:28;2.50;;;0.98;;
22201;SDS011;11266;51.522;6.302;2022-10-16T16:27:20;1.67;;;1.05;;
22201;SDS011;11266;51.522;6.302;2022-10-16T16:28:09;1.77;;;0.90;;
22201;SDS011;11266;51.522;6.302;2022-10-16T16:28:59;2.40;;;1.00;;
22201;SDS011;11266;51.522;6.302;2022-10-16T16:29:45;2.22;;;0.98;;
22201;SDS011;11266;51.522;6.302;2022-10-16T16:30:31;3.78;;;1.25;;
22201;SDS011;11266;51.522;6.302;2022-10-16T16:31:17;2.13;;;1.15;;
22201;SDS011;11266;51.522;6.302;2022-10-16T16:32:04;1.98;;;1.10;;
22201;SDS011;11266;51.522;6.302;2022-10-16T16:32:50;2.25;;;1.10;;
22201;SDS011;11266;51.522;6.302;2022-10-16T16:33:36;1.88;;;1.00;;
22201;SDS011;11266;51.522;6.302;2022-10-16T16:34:22;2.15;;;1.05;;
22201;SDS011;11266;51.522;6.302;2022-10-16T16:35:08;1.73;;;1.08;;
22201;SDS011;11266;51.522;6.302;2022-10-16T16:35:58;1.77;;;1.10;;
22201;SDS011;11266;51.522;6.302;2022-10-16T16:36:44;2.38;;;1.25;;
22201;SDS011;11266;51.522;6.302;2022-10-16T16:37:30;2.55;;;1.35;;
22201;SDS011;11266;51.522;6.302;2022-10-16T16:38:16;2.47;;;1.40;;
22201;SDS011;11266;51.522;6.302;2022-10-16T16:39:04;3.78;;;1.60;;
22201;SDS011;11266;51.522;6.302;2022-10-16T16:39:50;5.13;;;1.60;;
22201;SDS011;11266;51.522;6.302;2022-10-16T16:40:36;2.85;;;1.40;;
22201;SDS011;11266;51.522;6.302;2022-10-16T16:41:24;4.00;;;1.50;;
22201;SDS011;11266;51.522;6.302;2022-10-16T16:42:10;3.33;;;1.38;;
22201;SDS011;11266;51.522;6.302;2022-10-16T16:42:56;3.03;;;1.50;;
22201;SDS011;11266;51.522;6.302;2022-10-16T16:43:42;3.65;;;1.77;;
22201;SDS011;11266;51.522;6.302;2022-10-16T16:44:28;4.40;;;1.60;;
22201;SDS011;11266;51.522;6.302;2022-10-16T16:45:14;2.88;;;1.60;;
22201;SDS011;11266;51.522;6.302;2022-10-16T16:46:01;2.67;;;1.30;;
22201;SDS011;11266;51.522;6.302;2022-10-16T16:46:47;4.68;;;1.80;;
22201;SDS011;11266;51.522;6.302;2022-10-16T16:47:33;3.65;;;1.65;;
22201;SDS011;11266;51.522;6.302;2022-10-16T16:48:19;3.08;;;1.60;;
22201;SDS011;11266;51.522;6.302;2022-10-16T16:49:05;3.38;;;1.75;;
22201;SDS011;11266;51.522;6.302;2022-10-16T16:49:51;3.90;;;1.80;;
22201;SDS011;11266;51.522;6.302;2022-10-16T16:50:37;3.72;;;1.90;;
22201;SDS011;11266;51.522;6.302;2022-10-16T16:51:23;4.05;;;1.73;;
22201;SDS011;11266;51.522;6.302;2022-10-16T16:52:10;4.13;;;1.90;;
22201;SDS011;11266;51.522;6.302;2022-10-16T16:52:58;3.65;;;1.83;;
22201;SDS011;11266;51.522;6.302;2022-10-16T16:53:48;5.25;;;2.03;;
22201;SDS011;11266;51.522;6.302;2022-10-16T16:54:34;4.32;;;1.90;;
22201;SDS011;11266;51.522;6.302;2022-10-16T16:55:20;3.90;;;1.92;;
22201;SDS011;11266;51.522;6.302;2022-10-16T16:56:06;5.15;;;2.20;;
22201;SDS011;11266;51.522;6.302;2022-10-16T16:56:55;3.55;;;2.05;;
22201;SDS011;11266;51.522;6.302;2022-10-16T16:57:41;3.35;;;1.88;;
22201;SDS011;11266;51.522;6.302;2022-10-16T16:58:27;3.05;;;1.90;;
22201;SDS011;11266;51.522;6.302;2022-10-16T16:59:13;4.68;;;2.45;;
22201;SDS011;11266;51.522;6.302;2022-10-16T16:59:59;4.20;;;2.53;;
22201;SDS011;11266;51.522;6.302;2022-10-16T17:00:46;4.25;;;2.30;;
22201;SDS011;11266;51.522;6.302;2022-10-16T17:01:32;6.25;;;3.55;;
22201;SDS011;11266;51.522;6.302;2022-10-16T17:02:18;5.88;;;3.17;;
22201;SDS011;11266;51.522;6.302;2022-10-16T17:03:04;6.45;;;3.15;;
22201;SDS011;11266;51.522;6.302;2022-10-16T17:03:51;5.78;;;3.28;;
22201;SDS011;11266;51.522;6.302;2022-10-16T17:04:37;4.00;;;2.30;;
22201;SDS011;11266;51.522;6.302;2022-10-16T17:05:23;4.10;;;2.50;;
22201;SDS011;11266;51.522;6.302;2022-10-16T17:06:09;6.13;;;3.95;;
22201;SDS011;11266;51.522;6.302;2022-10-16T17:06:56;5.22;;;2.67;;
22201;SDS011;11266;51.522;6.302;2022-10-16T17:07:42;4.57;;;2.42;;
22201;SDS011;11266;51.522;6.302;2022-10-16T17:08:28;4.55;;;3.08;;
22201;SDS011;11266;51.522;6.302;2022-10-16T17:09:14;4.90;;;2.85;;
22201;SDS011;11266;51.522;6.302;2022-10-16T17:10:01;5.18;;;2.75;;
22201;SDS011;11266;51.522;6.302;2022-10-16T17:10:48;5.78;;;3.40;;
22201;SDS011;11266;51.522;6.302;2022-10-16T17:11:37;6.55;;;3.50;;
22201;SDS011;11266;51.522;6.302;2022-10-16T17:12:26;5.65;;;3.38;;
22201;SDS011;11266;51.522;6.302;2022-10-16T17:13:12;10.05;;;4.07;;
22201;SDS011;11266;51.522;6.302;2022-10-16T17:13:58;6.30;;;3.45;;
22201;SDS011;11266;51.522;6.302;2022-10-16T17:14:45;6.47;;;3.72;;
22201;SDS011;11266;51.522;6.302;2022-10-16T17:15:31;7.95;;;3.70;;
22201;SDS011;11266;51.522;6.302;2022-10-16T17:16:18;6.82;;;3.80;;
22201;SDS011;11266;51.522;6.302;2022-10-16T17:17:04;4.47;;;3.15;;
22201;SDS011;11266;51.522;6.302;2022-10-16T17:17:51;6.55;;;4.00;;
22201;SDS011;11266;51.522;6.302;2022-10-16T17:18:37;5.35;;;3.55;;
22201;SDS011;11266;51.522;6.302;2022-10-16T17:19:24;6.35;;;3.65;;
22201;SDS011;11266;51.522;6.302;2022-10-16T17:20:10;7.65;;;4.43;;
22201;SDS011;11266;51.522;6.302;2022-10-16T17:20:59;9.75;;;4.63;;
22201;SDS011;11266;51.522;6.302;2022-10-16T17:21:49;7.28;;;4.80;;
22201;SDS011;11266;51.522;6.302;2022-10-16T17:22:35;7.45;;;4.72;;
22201;SDS011;11266;51.522;6.302;2022-10-16T17:23:21;6.78;;;4.25;;
22201;SDS011;11266;51.522;6.302;2022-10-16T17:24:07;7.95;;;5.00;;
22201;SDS011;11266;51.522;6.302;2022-10-16T17:24:53;8.52;;;4.93;;
22201;SDS011;11266;51.522;6.302;2022-10-16T17:25:39;7.78;;;4.40;;
22201;SDS011;11266;51.522;6.302;2022-10-16T17:26:26;7.57;;;4.90;;
22201;SDS011;11266;51.522;6.302;2022-10-16T17:27:12;7.32;;;4.32;;
22201;SDS011;11266;51.522;6.302;2022-10-16T17:27:58;9.38;;;4.57;;
22201;SDS011;11266;51.522;6.302;2022-10-16T17:28:44;6.25;;;3.78;;
22201;SDS011;11266;51.522;6.302;2022-10-16T17:29:30;6.10;;;4.03;;
22201;SDS011;11266;51.522;6.302;2022-10-16T17:30:16;7.78;;;4.38;;
22201;SDS011;11266;51.522;6.302;2022-10-16T17:31:55;6.80;;;3.92;;
22201;SDS011;11266;51.522;6.302;2022-10-16T17:32:43;7.32;;;4.18;;
22201;SDS011;11266;51.522;6.302;2022-10-16T17:33:29;6.20;;;3.95;;
22201;SDS011;11266;51.522;6.302;2022-10-16T17:34:15;7.30;;;3.70;;
22201;SDS011;11266;51.522;6.302;2022-10-16T17:35:01;6.43;;;4.05;;
22201;SDS011;11266;51.522;6.302;2022-10-16T17:35:47;7.82;;;3.45;;
22201;SDS011;11266;51.522;6.302;2022-10-16T17:36:34;6.65;;;3.72;;
22201;SDS011;11266;51.522;6.302;2022-10-16T17:37:20;11.00;;;4.20;;
22201;SDS011;11266;51.522;6.302;2022-10-16T17:38:06;6.55;;;3.60;;
22201;SDS011;11266;51.522;6.302;2022-10-16T17:38:52;6.93;;;3.88;;
22201;SDS011;11266;51.522;6.302;2022-10-16T17:39:38;6.90;;;3.95;;
22201;SDS011;11266;51.522;6.302;2022-10-16T17:40:24;6.93;;;3.67;;
22201;SDS011;11266;51.522;6.302;2022-10-16T17:41:11;6.10;;;3.55;;
22201;SDS011;11266;51.522;6.302;2022-10-16T17:41:58;5.85;;;3.22;;
22201;SDS011;11266;51.522;6.302;2022-10-16T17:42:44;7.47;;;3.60;;
22201;SDS011;11266;51.522;6.302;2022-10-16T17:43:32;5.55;;;3.17;;
22201;SDS011;11266;51.522;6.302;2022-10-16T17:44:18;6.68;;;2.90;;
22201;SDS011;11266;51.522;6.302;2022-10-16T17:45:04;5.38;;;3.05;;
22201;SDS011;11266;51.522;6.302;2022-10-16T17:45:50;8.75;;;3.38;;
22201;SDS011;11266;51.522;6.302;2022-10-16T17:46:36;5.35;;;3.00;;
22201;SDS011;11266;51.522;6.302;2022-10-16T17:47:22;10.95;;;3.70;;
22201;SDS011;11266;51.522;6.302;2022-10-16T17:48:08;6.50;;;2.92;;
22201;SDS011;11266;51.522;6.302;2022-10-16T17:48:56;5.32;;;3.50;;
22201;SDS011;11266;51.522;6.302;2022-10-16T17:49:43;7.07;;;3.80;;
22201;SDS011;11266;51.522;6.302;2022-10-16T17:50:29;6.32;;;3.50;;
22201;SDS011;11266;51.522;6.302;2022-10-16T17:51:17;5.88;;;3.10;;
22201;SDS011;11266;51.522;6.302;2022-10-16T17:52:03;6.18;;;3.85;;
22201;SDS011;11266;51.522;6.302;2022-10-16T17:52:49;6.90;;;4.38;;
22201;SDS011;11266;51.522;6.302;2022-10-16T17:53:35;7.30;;;4.43;;
22201;SDS011;11266;51.522;6.302;2022-10-16T17:54:23;6.70;;;4.20;;
22201;SDS011;11266;51.522;6.302;2022-10-16T17:55:09;7.30;;;4.28;;
22201;SDS011;11266;51.522;6.302;2022-10-16T17:55:55;7.93;;;4.60;;
22201;SDS011;11266;51.522;6.302;2022-10-16T17:56:44;8.48;;;4.20;;
22201;SDS011;11266;51.522;6.302;2022-10-16T17:57:31;7.63;;;4.47;;
22201;SDS011;11266;51.522;6.302;2022-10-16T17:58:17;6.88;;;4.60;;
22201;SDS011;11266;51.522;6.302;2022-10-16T17:59:03;9.25;;;5.30;;
22201;SDS011;11266;51.522;6.302;2022-10-16T17:59:50;8.02;;;5.40;;
22201;SDS011;11266;51.522;6.302;2022-10-16T18:00:36;9.55;;;5.35;;
22201;SDS011;11266;51.522;6.302;2022-10-16T18:01:23;7.95;;;5.15;;
22201;SDS011;11266;51.522;6.302;2022-10-16T18:02:10;9.15;;;5.07;;
22201;SDS011;11266;51.522;6.302;2022-10-16T18:02:56;8.10;;;5.03;;
22201;SDS011;11266;51.522;6.302;2022-10-16T18:03:42;7.55;;;4.85;;
22201;SDS011;11266;51.522;6.302;2022-10-16T18:04:28;9.38;;;5.28;;
22201;SDS011;11266;51.522;6.302;2022-10-16T18:05:14;8.43;;;5.25;;
22201;SDS011;11266;51.522;6.302;2022-10-16T18:06:00;8.43;;;5.03;;
22201;SDS011;11266;51.522;6.302;2022-10-16T18:06:48;8.52;;;5.40;;
22201;SDS011;11266;51.522;6.302;2022-10-16T18:07:34;8.82;;;4.90;;
22201;SDS011;11266;51.522;6.302;2022-10-16T18:08:21;9.38;;;5.05;;
22201;SDS011;11266;51.522;6.302;2022-10-16T18:09:08;7.80;;;4.50;;
22201;SDS011;11266;51.522;6.302;2022-10-16T18:09:54;8.73;;;5.30;;
22201;SDS011;11266;51.522;6.302;2022-10-16T18:10:47;8.00;;;4.82;;
22201;SDS011;11266;51.522;6.302;2022-10-16T18:11:35;7.75;;;5.05;;
22201;SDS011;11266;51.522;6.302;2022-10-16T18:12:21;8.38;;;5.15;;
22201;SDS011;11266;51.522;6.302;2022-10-16T18:13:07;6.85;;;4.18;;
22201;SDS011;11266;51.522;6.302;2022-10-16T18:13:54;7.10;;;4.20;;
22201;SDS011;11266;51.522;6.302;2022-10-16T18:14:40;6.75;;;4.25;;
22201;SDS011;11266;51.522;6.302;2022-10-16T18:15:26;7.93;;;4.55;;
22201;SDS011;11266;51.522;6.302;2022-10-16T18:16:13;8.68;;;4.72;;
22201;SDS011;11266;51.522;6.302;2022-10-16T18:16:59;7.03;;;4.30;;
22201;SDS011;11266;51.522;6.302;2022-10-16T18:17:45;7.15;;;4.30;;
22201;SDS011;11266;51.522;6.302;2022-10-16T18:18:31;7.68;;;3.85;;
22201;SDS011;11266;51.522;6.302;2022-10-16T18:19:18;6.43;;;4.20;;
22201;SDS011;11266;51.522;6.302;2022-10-16T18:20:06;7.25;;;4.13;;
22201;SDS011;11266;51.522;6.302;2022-10-16T18:20:59;7.05;;;3.75;;
22201;SDS011;11266;51.522;6.302;2022-10-16T18:21:45;5.93;;;3.70;;
22201;SDS011;11266;51.522;6.302;2022-10-16T18:22:33;5.75;;;3.63;;
22201;SDS011;11266;51.522;6.302;2022-10-16T18:23:22;5.32;;;3.95;;
22201;SDS011;11266;51.522;6.302;2022-10-16T18:24:09;6.80;;;3.97;;
22201;SDS011;11266;51.522;6.302;2022-10-16T18:24:55;5.68;;;3.35;;
22201;SDS011;11266;51.522;6.302;2022-10-16T18:25:48;5.97;;;3.40;;
22201;SDS011;11266;51.522;6.302;2022-10-16T18:26:34;7.68;;;3.58;;
22201;SDS011;11266;51.522;6.302;2022-10-16T18:27:20;5.50;;;3.40;;
22201;SDS011;11266;51.522;6.302;2022-10-16T18:28:06;5.20;;;3.15;;
22201;SDS011;11266;51.522;6.302;2022-10-16T18:28:55;6.90;;;3.28;;
22201;SDS011;11266;51.522;6.302;2022-10-16T18:29:42;5.97;;;3.40;;
22201;SDS011;11266;51.522;6.302;2022-10-16T18:30:28;4.88;;;3.00;;
22201;SDS011;11266;51.522;6.302;2022-10-16T18:31:15;6.50;;;3.40;;
22201;SDS011;11266;51.522;6.302;2022-10-16T18:32:01;5.53;;;3.20;;
22201;SDS011;11266;51.522;6.302;2022-10-16T18:32:47;6.82;;;3.55;;
22201;SDS011;11266;51.522;6.302;2022-10-16T18:33:34;7.70;;;4.50;;
22201;SDS011;11266;51.522;6.302;2022-10-16T18:34:20;6.40;;;3.22;;
22201;SDS011;11266;51.522;6.302;2022-10-16T18:35:06;6.43;;;3.03;;
22201;SDS011;11266;51.522;6.302;2022-10-16T18:35:52;6.18;;;3.13;;
22201;SDS011;11266;51.522;6.302;2022-10-16T18:36:39;10.02;;;3.58;;
22201;SDS011;11266;51.522;6.302;2022-10-16T18:37:26;4.57;;;2.85;;
22201;SDS011;11266;51.522;6.302;2022-10-16T18:38:13;5.72;;;2.80;;
22201;SDS011;11266;51.522;6.302;2022-10-16T18:39:00;4.53;;;2.65;;
22201;SDS011;11266;51.522;6.302;2022-10-16T18:39:46;5.93;;;3.13;;
22201;SDS011;11266;51.522;6.302;2022-10-16T18:40:34;4.32;;;2.72;;
22201;SDS011;11266;51.522;6.302;2022-10-16T18:41:20;5.43;;;2.95;;
22201;SDS011;11266;51.522;6.302;2022-10-16T18:42:07;5.00;;;2.63;;
22201;SDS011;11266;51.522;6.302;2022-10-16T18:42:53;4.85;;;2.75;;
22201;SDS011;11266;51.522;6.302;2022-10-16T18:43:39;6.30;;;3.20;;
22201;SDS011;11266;51.522;6.302;2022-10-16T18:44:26;3.95;;;2.38;;
22201;SDS011;11266;51.522;6.302;2022-10-16T18:45:12;4.65;;;2.70;;
22201;SDS011;11266;51.522;6.302;2022-10-16T18:45:59;5.68;;;2.83;;
22201;SDS011;11266;51.522;6.302;2022-10-16T18:46:48;4.40;;;2.60;;
22201;SDS011;11266;51.522;6.302;2022-10-16T18:47:36;4.75;;;2.35;;
22201;SDS011;11266;51.522;6.302;2022-10-16T18:48:22;3.95;;;2.35;;
22201;SDS011;11266;51.522;6.302;2022-10-16T18:49:08;4.45;;;2.63;;
22201;SDS011;11266;51.522;6.302;2022-10-16T18:49:54;4.32;;;2.50;;
22201;SDS011;11266;51.522;6.302;2022-10-16T18:50:40;3.63;;;2.35;;
22201;SDS011;11266;51.522;6.302;2022-10-16T18:51:28;4.78;;;2.80;;
22201;SDS011;11266;51.522;6.302;2022-10-16T18:52:14;5.72;;;2.60;;
22201;SDS011;11266;51.522;6.302;2022-10-16T18:53:01;5.10;;;2.40;;
22201;SDS011;11266;51.522;6.302;2022-10-16T18:53:48;4.35;;;2.50;;
22201;SDS011;11266;51.522;6.302;2022-10-16T18:54:34;6.38;;;2.80;;
22201;SDS011;11266;51.522;6.302;2022-10-16T18:55:21;4.30;;;2.75;;
22201;SDS011;11266;51.522;6.302;2022-10-16T18:56:08;3.55;;;2.22;;
22201;SDS011;11266;51.522;6.302;2022-10-16T18:56:56;3.60;;;2.42;;
22201;SDS011;11266;51.522;6.302;2022-10-16T18:57:42;8.25;;;2.72;;
22201;SDS011;11266;51.522;6.302;2022-10-16T18:58:28;4.63;;;2.40;;
22201;SDS011;11266;51.522;6.302;2022-10-16T18:59:14;8.13;;;2.42;;
22201;SDS011;11266;51.522;6.302;2022-10-16T19:00:00;4.40;;;2.53;;
22201;SDS011;11266;51.522;6.302;2022-10-16T19:00:46;5.10;;;2.60;;
22201;SDS011;11266;51.522;6.302;2022-10-16T19:01:33;4.68;;;2.35;;
22201;SDS011;11266;51.522;6.302;2022-10-16T19:02:19;9.45;;;2.63;;
22201;SDS011;11266;51.522;6.302;2022-10-16T19:03:05;4.10;;;2.50;;
22201;SDS011;11266;51.522;6.302;2022-10-16T19:03:55;4.28;;;2.30;;
22201;SDS011;11266;51.522;6.302;2022-10-16T19:04:41;4.57;;;2.65;;
22201;SDS011;11266;51.522;6.302;2022-10-16T19:05:27;3.97;;;2.10;;
22201;SDS011;11266;51.522;6.302;2022-10-16T19:06:13;3.88;;;2.40;;
22201;SDS011;11266;51.522;6.302;2022-10-16T19:07:00;5.47;;;2.20;;
22201;SDS011;11266;51.522;6.302;2022-10-16T19:07:46;5.78;;;2.58;;
22201;SDS011;11266;51.522;6.302;2022-10-16T19:08:32;4.53;;;2.42;;
22201;SDS011;11266;51.522;6.302;2022-10-16T19:09:20;3.30;;;2.00;;
22201;SDS011;11266;51.522;6.302;2022-10-16T19:10:06;4.47;;;2.20;;
22201;SDS011;11266;51.522;6.302;2022-10-16T19:10:52;3.70;;;2.40;;
22201;SDS011;11266;51.522;6.302;2022-10-16T19:11:38;6.13;;;2.42;;
22201;SDS011;11266;51.522;6.302;2022-10-16T19:12:24;5.32;;;2.30;;
22201;SDS011;11266;51.522;6.302;2022-10-16T19:13:10;3.45;;;2.33;;
22201;SDS011;11266;51.522;6.302;2022-10-16T19:13:57;3.40;;;2.17;;
22201;SDS011;11266;51.522;6.302;2022-10-16T19:14:43;4.32;;;2.35;;
22201;SDS011;11266;51.522;6.302;2022-10-16T19:15:29;3.92;;;2.13;;
22201;SDS011;11266;51.522;6.302;2022-10-16T19:16:19;3.67;;;2.20;;
22201;SDS011;11266;51.522;6.302;2022-10-16T19:17:05;4.88;;;2.40;;
22201;SDS011;11266;51.522;6.302;2022-10-16T19:17:51;4.03;;;2.28;;
22201;SDS011;11266;51.522;6.302;2022-10-16T19:18:38;5.15;;;2.63;;
22201;SDS011;11266;51.522;6.302;2022-10-16T19:19:24;6.60;;;2.35;;
22201;SDS011;11266;51.522;6.302;2022-10-16T19:20:10;6.95;;;3.50;;
22201;SDS011;11266;51.522;6.302;2022-10-16T19:21:00;8.18;;;3.85;;
22201;SDS011;11266;51.522;6.302;2022-10-16T19:21:46;7.25;;;3.10;;
22201;SDS011;11266;51.522;6.302;2022-10-16T19:22:35;6.78;;;4.28;;
22201;SDS011;11266;51.522;6.302;2022-10-16T19:23:42;7.53;;;4.40;;
22201;SDS011;11266;51.522;6.302;2022-10-16T19:24:28;8.82;;;4.03;;
22201;SDS011;11266;51.522;6.302;2022-10-16T19:25:16;6.22;;;3.40;;
22201;SDS011;11266;51.522;6.302;2022-10-16T19:26:03;11.77;;;4.05;;
22201;SDS011;11266;51.522;6.302;2022-10-16T19:26:49;5.80;;;3.80;;
22201;SDS011;11266;51.522;6.302;2022-10-16T19:27:36;8.85;;;4.70;;
22201;SDS011;11266;51.522;6.302;2022-10-16T19:28:22;7.50;;;4.82;;
22201;SDS011;11266;51.522;6.302;2022-10-16T19:29:09;10.93;;;5.53;;
22201;SDS011;11266;51.522;6.302;2022-10-16T19:29:55;7.70;;;5.07;;
22201;SDS011;11266;51.522;6.302;2022-10-16T19:30:41;10.98;;;5.20;;
22201;SDS011;11266;51.522;6.302;2022-10-16T19:31:30;10.43;;;5.93;;
22201;SDS011;11266;51.522;6.302;2022-10-16T19:32:16;10.43;;;5.90;;
22201;SDS011;11266;51.522;6.302;2022-10-16T19:33:02;9.65;;;5.78;;
22201;SDS011;11266;51.522;6.302;2022-10-16T19:33:51;11.63;;;6.10;;
22201;SDS011;11266;51.522;6.302;2022-10-16T19:34:38;9.25;;;5.75;;
22201;SDS011;11266;51.522;6.302;2022-10-16T19:35:24;9.85;;;5.38;;
22201;SDS011;11266;51.522;6.302;2022-10-16T19:36:11;8.98;;;5.30;;
22201;SDS011;11266;51.522;6.302;2022-10-16T19:37:01;9.85;;;5.35;;
22201;SDS011;11266;51.522;6.302;2022-10-16T19:37:48;9.80;;;5.78;;
22201;SDS011;11266;51.522;6.302;2022-10-16T19:38:35;8.32;;;5.30;;
22201;SDS011;11266;51.522;6.302;2022-10-16T19:39:21;7.80;;;4.85;;
22201;SDS011;11266;51.522;6.302;2022-10-16T19:40:09;8.48;;;4.93;;
22201;SDS011;11266;51.522;6.302;2022-10-16T19:40:55;9.68;;;5.78;;
22201;SDS011;11266;51.522;6.302;2022-10-16T19:41:48;9.75;;;5.47;;
22201;SDS011;11266;51.522;6.302;2022-10-16T19:42:35;9.25;;;4.72;;
22201;SDS011;11266;51.522;6.302;2022-10-16T19:43:27;8.43;;;4.65;;
22201;SDS011;11266;51.522;6.302;2022-10-16T19:44:14;8.05;;;4.63;;
22201;SDS011;11266;51.522;6.302;2022-10-16T19:45:00;8.75;;;4.75;;
22201;SDS011;11266;51.522;6.302;2022-10-16T19:45:48;8.02;;;4.80;;
22201;SDS011;11266;51.522;6.302;2022-10-16T19:46:35;7.97;;;4.93;;
22201;SDS011;11266;51.522;6.302;2022-10-16T19:47:21;6.97;;;4.30;;
22201;SDS011;11266;51.522;6.302;2022-10-16T19:48:07;7.15;;;4.30;;
22201;SDS011;11266;51.522;6.302;2022-10-16T19:48:57;9.63;;;5.20;;
22201;SDS011;11266;51.522;6.302;2022-10-16T19:49:43;7.60;;;4.60;;
22201;SDS011;11266;51.522;6.302;2022-10-16T19:50:30;7.72;;;4.10;;
22201;SDS011;11266;51.522;6.302;2022-10-16T19:51:17;8.57;;;3.90;;
22201;SDS011;11266;51.522;6.302;2022-10-16T19:52:03;7.20;;;3.80;;
22201;SDS011;11266;51.522;6.302;2022-10-16T19:52:49;8.73;;;4.15;;
22201;SDS011;11266;51.522;6.302;2022-10-16T19:53:35;7.28;;;3.88;;
22201;SDS011;11266;51.522;6.302;2022-10-16T19:54:21;6.25;;;3.65;;
22201;SDS011;11266;51.522;6.302;2022-10-16T19:55:07;7.65;;;3.75;;
22201;SDS011;11266;51.522;6.302;2022-10-16T19:55:54;5.15;;;3.38;;
22201;SDS011;11266;51.522;6.302;2022-10-16T19:56:41;6.03;;;3.30;;
22201;SDS011;11266;51.522;6.302;2022-10-16T19:57:27;7.45;;;3.67;;
22201;SDS011;11266;51.522;6.302;2022-10-16T19:58:13;4.80;;;3.05;;
22201;SDS011;11266;51.522;6.302;2022-10-16T19:59:00;6.45;;;3.47;;
22201;SDS011;11266;51.522;6.302;2022-10-16T19:59:46;5.72;;;3.53;;
22201;SDS011;11266;51.522;6.302;2022-10-16T20:00:34;7.38;;;3.35;;
22201;SDS011;11266;51.522;6.302;2022-10-16T20:01:20;4.75;;;2.80;;
22201;SDS011;11266;51.522;6.302;2022-10-16T20:02:07;5.50;;;3.00;;
22201;SDS011;11266;51.522;6.302;2022-10-16T20:02:53;5.57;;;2.90;;
22201;SDS011;11266;51.522;6.302;2022-10-16T20:03:40;5.10;;;2.80;;
22201;SDS011;11266;51.522;6.302;2022-10-16T20:04:27;5.30;;;2.80;;
22201;SDS011;11266;51.522;6.302;2022-10-16T20:05:13;4.82;;;2.50;;
22201;SDS011;11266;51.522;6.302;2022-10-16T20:05:59;5.88;;;2.83;;
22201;SDS011;11266;51.522;6.302;2022-10-16T20:06:50;4.85;;;2.60;;
22201;SDS011;11266;51.522;6.302;2022-10-16T20:07:36;4.50;;;2.45;;
22201;SDS011;11266;51.522;6.302;2022-10-16T20:08:22;5.35;;;2.88;;
22201;SDS011;11266;51.522;6.302;2022-10-16T20:09:08;4.95;;;2.70;;
22201;SDS011;11266;51.522;6.302;2022-10-16T20:09:59;4.38;;;2.75;;
22201;SDS011;11266;51.522;6.302;2022-10-16T20:10:51;4.43;;;2.78;;
22201;SDS011;11266;51.522;6.302;2022-10-16T20:11:38;4.88;;;3.15;;
22201;SDS011;11266;51.522;6.302;2022-10-16T20:12:24;5.25;;;2.75;;
22201;SDS011;11266;51.522;6.302;2022-10-16T20:13:10;4.85;;;2.60;;
22201;SDS011;11266;51.522;6.302;2022-10-16T20:13:56;3.78;;;2.33;;
22201;SDS011;11266;51.522;6.302;2022-10-16T20:14:43;5.50;;;2.97;;
22201;SDS011;11266;51.522;6.302;2022-10-16T20:15:29;4.88;;;2.70;;
22201;SDS011;11266;51.522;6.302;2022-10-16T20:16:15;5.28;;;2.70;;
22201;SDS011;11266;51.522;6.302;2022-10-16T20:17:03;4.30;;;2.60;;
22201;SDS011;11266;51.522;6.302;2022-10-16T20:17:49;4.78;;;2.65;;
22201;SDS011;11266;51.522;6.302;2022-10-16T20:18:35;4.25;;;2.58;;
22201;SDS011;11266;51.522;6.302;2022-10-16T20:19:21;5.28;;;2.47;;
22201;SDS011;11266;51.522;6.302;2022-10-16T20:20:07;3.95;;;2.50;;
22201;SDS011;11266;51.522;6.302;2022-10-16T20:20:54;4.30;;;2.53;;
22201;SDS011;11266;51.522;6.302;2022-10-16T20:21:40;4.38;;;2.58;;
22201;SDS011;11266;51.522;6.302;2022-10-16T20:22:26;3.70;;;2.15;;
22201;SDS011;11266;51.522;6.302;2022-10-16T20:23:12;4.97;;;2.85;;
22201;SDS011;11266;51.522;6.302;2022-10-16T20:23:58;4.55;;;2.65;;
22201;SDS011;11266;51.522;6.302;2022-10-16T20:24:44;4.78;;;3.05;;
22201;SDS011;11266;51.522;6.302;2022-10-16T20:25:33;5.38;;;2.90;;
22201;SDS011;11266;51.522;6.302;2022-10-16T20:26:20;6.18;;;2.70;;
22201;SDS011;11266;51.522;6.302;2022-10-16T20:27:07;4.90;;;2.60;;
22201;SDS011;11266;51.522;6.302;2022-10-16T20:27:53;4.60;;;2.63;;
22201;SDS011;11266;51.522;6.302;2022-10-16T20:28:40;5.90;;;2.80;;
22201;SDS011;11266;51.522;6.302;2022-10-16T20:29:29;9.02;;;2.90;;
22201;SDS011;11266;51.522;6.302;2022-10-16T20:30:15;5.30;;;2.90;;
22201;SDS011;11266;51.522;6.302;2022-10-16T20:31:05;6.65;;;3.10;;
22201;SDS011;11266;51.522;6.302;2022-10-16T20:31:55;4.05;;;2.38;;
22201;SDS011;11266;51.522;6.302;2022-10-16T20:32:41;4.65;;;2.55;;
22201;SDS011;11266;51.522;6.302;2022-10-16T20:33:27;5.15;;;2.35;;
22201;SDS011;11266;51.522;6.302;2022-10-16T20:34:13;6.13;;;2.75;;
22201;SDS011;11266;51.522;6.302;2022-10-16T20:34:59;4.22;;;2.75;;
22201;SDS011;11266;51.522;6.302;2022-10-16T20:35:46;4.18;;;2.33;;
22201;SDS011;11266;51.522;6.302;2022-10-16T20:36:33;6.80;;;2.83;;
22201;SDS011;11266;51.522;6.302;2022-10-16T20:37:19;4.30;;;2.38;;
22201;SDS011;11266;51.522;6.302;2022-10-16T20:38:05;4.55;;;2.45;;
22201;SDS011;11266;51.522;6.302;2022-10-16T20:38:51;5.45;;;2.65;;
22201;SDS011;11266;51.522;6.302;2022-10-16T20:39:37;5.65;;;2.60;;
22201;SDS011;11266;51.522;6.302;2022-10-16T20:40:23;4.47;;;2.50;;
22201;SDS011;11266;51.522;6.302;2022-10-16T20:41:10;5.63;;;2.40;;